createdAt,value
2023-10-03T00:00:35.631Z,13.57
2023-10-03T00:03:37.798Z,13.53
2023-10-03T00:06:40.235Z,13.45
2023-10-03T00:09:42.851Z,13.57
2023-10-03T00:12:49.233Z,13.58
2023-10-03T00:15:51.255Z,13.62
2023-10-03T00:18:53.405Z,13.57
2023-10-03T00:21:55.217Z,13.64
2023-10-03T00:24:57.106Z,13.34
2023-10-03T00:28:02.344Z,13.54
2023-10-03T00:31:10.683Z,13.67
2023-10-03T00:34:14.156Z,13.65
2023-10-03T00:37:16.594Z,13.65
2023-10-03T00:40:22.921Z,13.65
2023-10-03T00:43:25.972Z,13.62
2023-10-03T00:46:31.330Z,13.40
2023-10-03T00:49:33.313Z,13.63
2023-10-03T00:52:36.068Z,13.66
2023-10-03T00:55:39.580Z,13.71
2023-10-03T00:58:42.665Z,13.64
2023-10-03T01:01:47.718Z,13.74
2023-10-03T01:04:50.854Z,13.76
2023-10-03T01:07:52.972Z,13.75
2023-10-03T01:10:56.718Z,13.73
2023-10-03T01:14:00.900Z,13.64
2023-10-03T01:17:04.675Z,13.65
2023-10-03T01:20:18.704Z,13.62
2023-10-03T01:23:22.112Z,13.73
2023-10-03T01:26:26.190Z,13.65
2023-10-03T01:29:28.242Z,13.70
2023-10-03T01:32:33.349Z,13.73
2023-10-03T01:35:35.717Z,13.60
2023-10-03T01:38:37.676Z,13.40
2023-10-03T01:41:39.731Z,13.67
2023-10-03T01:44:41.889Z,13.37
2023-10-03T01:47:49.118Z,13.74
2023-10-03T01:50:52.052Z,13.71
2023-10-03T01:53:57.371Z,13.67
2023-10-03T01:57:01.668Z,13.77
2023-10-03T02:00:07.366Z,13.72
2023-10-03T02:03:14.977Z,13.66
2023-10-03T02:06:17.752Z,13.70
2023-10-03T02:09:22.424Z,13.65
2023-10-03T02:12:24.563Z,13.69
2023-10-03T02:15:26.692Z,13.74
2023-10-03T02:18:28.675Z,13.77
2023-10-03T02:21:30.565Z,13.79
2023-10-03T02:24:33.661Z,13.56
2023-10-03T02:27:35.548Z,13.79
2023-10-03T02:35:40.588Z,13.65
2023-10-03T02:38:42.971Z,13.88
2023-10-03T02:41:45.130Z,13.81
2023-10-03T02:44:48.023Z,13.81
2023-10-03T02:47:57.575Z,13.68
2023-10-03T02:51:03.380Z,13.88
2023-10-03T02:54:05.468Z,13.93
2023-10-03T02:57:07.302Z,13.90
2023-10-03T03:00:16.460Z,13.93
2023-10-03T03:03:19.960Z,13.96
2023-10-03T03:06:24.045Z,14.11
2023-10-03T03:09:30.747Z,14.08
2023-10-03T03:12:36.707Z,14.18
2023-10-03T03:15:38.718Z,14.17
2023-10-03T03:18:44.847Z,14.17
2023-10-03T03:21:47.643Z,14.27
2023-10-03T03:24:53.023Z,14.27
2023-10-03T03:27:58.937Z,14.10
2023-10-03T03:31:02.756Z,14.34
2023-10-03T03:34:04.737Z,14.37
2023-10-03T03:37:25.035Z,14.28
2023-10-03T03:40:35.131Z,14.31
2023-10-03T03:43:37.675Z,14.24
2023-10-03T03:46:41.923Z,14.39
2023-10-03T03:49:44.801Z,14.40
2023-10-03T03:52:46.761Z,14.42
2023-10-03T03:55:50.784Z,14.37
2023-10-03T03:58:52.845Z,14.27
2023-10-03T04:01:56.588Z,14.38
2023-10-03T04:04:58.546Z,14.44
2023-10-03T04:08:00.811Z,14.38
2023-10-03T04:11:08.470Z,14.43
2023-10-03T04:14:10.346Z,14.41
2023-10-03T04:17:16.897Z,14.42
2023-10-03T04:20:21.634Z,14.41
2023-10-03T04:23:23.497Z,14.45
2023-10-03T04:26:29.166Z,14.33
2023-10-03T04:29:31.472Z,14.40
2023-10-03T04:32:33.698Z,14.46
2023-10-03T04:35:36.702Z,14.48
2023-10-03T04:38:38.785Z,14.50
2023-10-03T04:41:45.147Z,14.44
2023-10-03T04:44:47.478Z,14.50
2023-10-03T04:47:50.090Z,14.51
2023-10-03T04:50:52.342Z,14.48
2023-10-03T04:53:54.436Z,14.55
2023-10-03T04:56:56.429Z,14.56
2023-10-03T04:59:58.488Z,14.51
2023-10-03T05:03:00.570Z,14.53
2023-10-03T05:06:03.634Z,14.43
2023-10-03T05:09:06.292Z,14.23
2023-10-03T05:12:08.335Z,14.55
2023-10-03T05:15:10.498Z,14.56
2023-10-03T05:18:13.151Z,14.55
2023-10-03T05:21:15.124Z,14.66
2023-10-03T05:24:17.753Z,14.68
2023-10-03T05:27:19.850Z,14.74
2023-10-03T05:30:22.541Z,14.77
2023-10-03T05:33:24.425Z,14.80
2023-10-03T05:36:26.356Z,14.83
2023-10-03T05:39:28.297Z,14.77
2023-10-03T05:42:30.144Z,14.85
2023-10-03T05:45:32.124Z,14.83
2023-10-03T05:48:36.078Z,14.93
2023-10-03T05:51:37.979Z,14.95
2023-10-03T05:54:39.841Z,14.96
2023-10-03T05:57:44.245Z,14.78
2023-10-03T06:00:46.330Z,14.99
2023-10-03T06:03:48.521Z,15.03
2023-10-03T06:06:51.162Z,15.10
2023-10-03T06:09:55.069Z,15.16
2023-10-03T06:12:56.944Z,15.20
2023-10-03T06:16:01.799Z,15.21
2023-10-03T06:19:05.034Z,15.23
2023-10-03T06:22:09.585Z,15.33
2023-10-03T06:25:12.233Z,15.40
2023-10-03T06:28:17.585Z,15.38
2023-10-03T06:31:19.685Z,15.52
2023-10-03T06:34:21.834Z,15.57
2023-10-03T06:37:25.384Z,15.61
2023-10-03T06:40:28.704Z,15.70
2023-10-03T06:43:30.510Z,15.74
2023-10-03T06:46:32.531Z,15.75
2023-10-03T06:49:34.464Z,15.74
2023-10-03T06:52:36.622Z,15.72
2023-10-03T06:55:38.484Z,15.70
2023-10-03T06:58:40.404Z,15.86
2023-10-03T07:01:42.462Z,15.83
2023-10-03T07:04:46.181Z,15.82
2023-10-03T07:07:48.993Z,15.89
2023-10-03T07:10:51.634Z,15.87
2023-10-03T07:13:53.716Z,15.97
2023-10-03T07:16:56.441Z,16.04
2023-10-03T07:19:59.648Z,16.12
2023-10-03T07:23:01.728Z,16.19
2023-10-03T07:26:04.581Z,16.17
2023-10-03T07:29:07.390Z,16.19
2023-10-03T07:32:13.972Z,16.20
2023-10-03T07:35:18.351Z,16.17
2023-10-03T07:38:20.177Z,16.18
2023-10-03T07:41:23.213Z,16.19
2023-10-03T07:44:27.290Z,16.15
2023-10-03T07:47:29.551Z,16.11
2023-10-03T07:50:32.348Z,16.43
2023-10-03T07:53:37.829Z,16.22
2023-10-03T07:56:43.822Z,16.63
2023-10-03T07:59:45.816Z,16.75
2023-10-03T08:02:51.226Z,16.72
2023-10-03T08:05:58.399Z,16.87
2023-10-03T08:09:01.258Z,16.98
2023-10-03T08:12:13.275Z,17.07
2023-10-03T08:15:18.803Z,17.00
2023-10-03T08:18:20.918Z,17.09
2023-10-03T08:21:23.018Z,17.18
2023-10-03T08:24:26.694Z,17.35
2023-10-03T08:27:31.625Z,17.37
2023-10-03T08:30:36.617Z,17.39
2023-10-03T08:33:38.781Z,17.27
2023-10-03T08:36:40.733Z,17.28
2023-10-03T08:39:42.961Z,17.31
2023-10-03T08:42:45.540Z,17.52
2023-10-03T08:45:54.268Z,17.60
2023-10-03T08:49:02.448Z,17.70
2023-10-03T08:52:07.393Z,17.94
2023-10-03T08:55:16.000Z,18.11
2023-10-03T08:58:27.500Z,17.98
2023-10-03T09:01:34.848Z,18.27
2023-10-03T09:04:40.657Z,18.33
2023-10-03T09:07:45.804Z,18.44
2023-10-03T09:10:54.384Z,18.60
2023-10-03T09:14:01.469Z,18.56
2023-10-03T09:17:05.195Z,18.59
2023-10-03T09:20:10.194Z,18.73
2023-10-03T09:23:16.252Z,18.86
2023-10-03T09:26:20.796Z,18.99
2023-10-03T09:29:33.248Z,19.27
2023-10-03T09:32:41.104Z,19.40
2023-10-03T09:36:04.011Z,19.67
2023-10-03T09:39:08.746Z,19.87
2023-10-03T09:42:17.111Z,19.90
2023-10-03T09:45:26.084Z,20.06
2023-10-03T09:48:28.550Z,20.17
2023-10-03T09:51:52.798Z,20.05
2023-10-03T09:54:55.840Z,19.86
2023-10-03T09:58:01.307Z,19.83
2023-10-03T10:01:04.304Z,20.02
2023-10-03T10:04:11.348Z,19.89
2023-10-03T10:07:51.933Z,20.14
2023-10-03T10:11:10.791Z,20.18
2023-10-03T10:14:13.883Z,20.31
2023-10-03T10:17:15.955Z,20.30
2023-10-03T10:20:19.169Z,20.26
2023-10-03T10:23:21.921Z,20.35
2023-10-03T10:26:33.342Z,20.39
2023-10-03T10:29:59.954Z,20.54
2023-10-03T10:33:17.852Z,20.56
2023-10-03T10:36:20.535Z,20.65
2023-10-03T10:39:25.428Z,20.71
2023-10-03T10:42:28.139Z,20.84
2023-10-03T10:45:39.986Z,20.97
2023-10-03T10:48:42.855Z,20.77
2023-10-03T10:51:55.794Z,21.05
2023-10-03T10:54:58.483Z,21.02
2023-10-03T10:58:14.372Z,21.28
2023-10-03T11:01:18.102Z,21.33
2023-10-03T11:04:24.909Z,21.16
2023-10-03T11:07:28.373Z,21.36
2023-10-03T11:10:35.701Z,21.44
2023-10-03T11:13:59.823Z,21.56
2023-10-03T11:17:06.002Z,21.58
2023-10-03T11:20:10.230Z,21.61
2023-10-03T11:23:19.566Z,21.80
2023-10-03T11:26:21.450Z,21.80
2023-10-03T11:29:41.985Z,21.60
2023-10-03T11:32:44.691Z,21.89
2023-10-03T11:35:53.897Z,21.79
2023-10-03T11:38:57.523Z,21.78
2023-10-03T11:42:02.110Z,21.70
2023-10-03T11:45:04.558Z,21.97
2023-10-03T11:48:24.136Z,22.03
2023-10-03T11:51:27.139Z,22.03
2023-10-03T11:54:29.073Z,22.23
2023-10-03T11:57:32.045Z,22.16
2023-10-03T12:00:35.050Z,22.13
2023-10-03T12:03:39.304Z,22.37
2023-10-03T12:06:42.988Z,22.41
2023-10-03T12:09:46.670Z,22.46
2023-10-03T12:12:48.574Z,22.37
2023-10-03T12:15:51.202Z,22.41
2023-10-03T12:18:53.216Z,22.28
2023-10-03T12:21:55.556Z,22.33
2023-10-03T12:24:58.297Z,22.44
2023-10-03T12:28:00.404Z,22.32
2023-10-03T12:31:02.271Z,22.48
2023-10-03T12:34:04.113Z,22.50
2023-10-03T12:37:12.728Z,22.63
2023-10-03T12:40:19.741Z,22.46
2023-10-03T12:43:22.874Z,22.52
2023-10-03T12:46:24.820Z,22.43
2023-10-03T12:49:27.400Z,22.49
2023-10-03T12:52:32.271Z,22.52
2023-10-03T12:55:35.245Z,22.26
2023-10-03T12:58:39.198Z,22.32
2023-10-03T13:01:41.301Z,22.56
2023-10-03T13:04:43.344Z,22.70
2023-10-03T13:07:49.751Z,22.50
2023-10-03T13:10:51.883Z,22.34
2023-10-03T13:13:53.762Z,22.56
2023-10-03T13:17:00.713Z,22.62
2023-10-03T13:20:06.397Z,22.66
2023-10-03T13:23:08.492Z,22.56
2023-10-03T13:26:12.039Z,22.64
2023-10-03T13:29:13.872Z,22.69
2023-10-03T13:32:17.434Z,22.39
2023-10-03T13:35:22.189Z,22.64
2023-10-03T13:38:24.639Z,22.65
2023-10-03T13:41:29.070Z,22.50
2023-10-03T13:44:30.973Z,22.66
2023-10-03T13:47:33.204Z,22.65
2023-10-03T13:50:36.946Z,22.48
2023-10-03T13:53:39.612Z,22.66
2023-10-03T13:56:41.689Z,22.66
2023-10-03T13:59:47.173Z,22.44
2023-10-03T14:02:52.037Z,22.61
2023-10-03T14:05:55.451Z,22.60
2023-10-03T14:08:58.224Z,22.60
2023-10-03T14:12:06.612Z,22.41
2023-10-03T14:15:13.125Z,22.36
2023-10-03T14:18:15.098Z,22.27
2023-10-03T14:21:18.971Z,22.07
2023-10-03T14:24:23.534Z,22.15
2023-10-03T14:27:25.379Z,22.22
2023-10-03T14:30:27.241Z,22.33
2023-10-03T14:33:32.986Z,22.11
2023-10-03T14:36:35.027Z,22.24
2023-10-03T14:39:36.889Z,21.81
2023-10-03T14:42:39.493Z,22.02
2023-10-03T14:45:41.683Z,22.13
2023-10-03T14:48:46.543Z,21.16
2023-10-03T14:51:49.428Z,22.02
2023-10-03T14:54:52.459Z,21.97
2023-10-03T14:57:55.338Z,22.00
2023-10-03T15:01:06.271Z,21.94
2023-10-03T15:04:11.078Z,21.79
2023-10-03T15:07:13.209Z,21.78
2023-10-03T15:10:15.791Z,21.61
2023-10-03T15:13:17.831Z,21.75
2023-10-03T15:16:19.918Z,21.69
2023-10-03T15:19:21.901Z,21.62
2023-10-03T15:22:23.911Z,21.55
2023-10-03T15:25:28.337Z,21.39
2023-10-03T15:28:33.327Z,21.29
2023-10-03T15:31:36.586Z,21.17
2023-10-03T15:34:39.696Z,21.08
2023-10-03T15:37:41.672Z,21.14
2023-10-03T15:40:46.185Z,21.02
2023-10-03T15:43:48.108Z,20.97
2023-10-03T15:46:51.142Z,20.71
2023-10-03T15:49:53.120Z,20.86
2023-10-03T15:52:55.429Z,20.82
2023-10-03T15:55:59.720Z,20.50
2023-10-03T15:59:02.795Z,20.57
2023-10-03T16:02:05.723Z,20.56
2023-10-03T16:05:08.543Z,20.41
2023-10-03T16:08:11.367Z,20.31
2023-10-03T16:11:13.992Z,20.17
2023-10-03T16:14:17.972Z,19.99
2023-10-03T16:17:20.098Z,19.97
2023-10-03T16:20:22.899Z,19.96
2023-10-03T16:23:24.809Z,19.63
2023-10-03T16:26:27.729Z,19.86
2023-10-03T16:29:31.053Z,19.75
2023-10-03T16:32:35.289Z,19.67
2023-10-03T16:35:38.210Z,19.54
2023-10-03T16:41:43.400Z,19.27
2023-10-03T16:44:46.916Z,19.43
2023-10-03T16:47:51.053Z,19.35
2023-10-03T16:50:53.002Z,19.22
2023-10-03T16:53:54.900Z,19.25
2023-10-03T16:56:58.168Z,19.12
2023-10-03T17:00:00.868Z,19.20
2023-10-03T17:03:02.901Z,19.01
2023-10-03T17:06:05.119Z,19.13
2023-10-03T17:09:09.565Z,18.99
2023-10-03T17:12:12.466Z,18.93
2023-10-03T17:15:16.582Z,18.80
2023-10-03T17:18:18.653Z,18.79
2023-10-03T17:21:21.989Z,18.83
2023-10-03T17:24:25.920Z,18.73
2023-10-03T17:27:27.844Z,18.37
2023-10-03T17:30:29.697Z,18.69
2023-10-03T17:33:31.722Z,18.66
2023-10-03T17:36:33.629Z,18.64
2023-10-03T17:39:35.817Z,18.59
2023-10-03T17:42:37.607Z,18.60
2023-10-03T17:45:43.700Z,18.57
2023-10-03T17:48:45.565Z,18.54
2023-10-03T17:51:48.985Z,18.48
2023-10-03T17:54:50.844Z,18.40
2023-10-03T17:57:52.863Z,18.41
2023-10-03T18:00:54.866Z,18.40
2023-10-03T18:03:58.068Z,18.41
2023-10-03T18:07:00.197Z,18.39
2023-10-03T18:10:02.159Z,18.36
2023-10-03T18:13:04.219Z,18.30
2023-10-03T18:16:06.906Z,18.33
2023-10-03T18:19:08.906Z,18.30
2023-10-03T18:22:11.449Z,18.23
2023-10-03T18:25:15.215Z,17.99
2023-10-03T18:28:17.170Z,18.18
2023-10-03T18:31:20.722Z,18.03
2023-10-03T18:34:22.653Z,17.83
2023-10-03T18:37:24.544Z,17.91
2023-10-03T18:40:27.059Z,17.90
2023-10-03T18:43:28.960Z,17.98
2023-10-03T18:46:30.994Z,17.91
2023-10-03T18:49:33.023Z,17.94
2023-10-03T18:52:38.378Z,17.85
2023-10-03T18:55:40.678Z,17.77
2023-10-03T18:58:42.597Z,17.48
2023-10-03T19:01:49.526Z,17.79
2023-10-03T19:04:52.098Z,17.79
2023-10-03T19:07:55.677Z,17.82
2023-10-03T19:10:57.649Z,17.77
2023-10-03T19:13:59.651Z,17.77
2023-10-03T19:17:01.589Z,17.69
2023-10-03T19:20:05.485Z,17.47
2023-10-03T19:23:07.340Z,17.78
2023-10-03T19:26:10.497Z,17.76
2023-10-03T19:29:12.494Z,17.64
2023-10-03T19:32:16.536Z,17.74
2023-10-03T19:35:20.304Z,17.62
2023-10-03T19:38:22.154Z,17.68
2023-10-03T19:41:23.985Z,17.54
2023-10-03T19:44:29.377Z,17.61
2023-10-03T19:47:31.250Z,17.60
2023-10-03T19:50:34.772Z,17.52
2023-10-03T19:53:36.697Z,17.30
2023-10-03T19:56:38.624Z,17.40
2023-10-03T19:59:42.649Z,17.50
2023-10-03T20:02:45.890Z,17.05
2023-10-03T20:05:48.086Z,17.31
2023-10-03T20:08:50.538Z,17.11
2023-10-03T20:11:54.114Z,16.98
2023-10-03T20:14:56.068Z,17.18
2023-10-03T20:17:58.419Z,17.16
2023-10-03T20:21:00.995Z,16.86
2023-10-03T20:24:02.979Z,17.21
2023-10-03T20:27:05.281Z,17.15
2023-10-03T20:30:07.927Z,17.11
2023-10-03T20:33:09.941Z,17.14
2023-10-03T20:36:15.488Z,17.10
2023-10-03T20:39:18.171Z,16.81
2023-10-03T20:42:20.117Z,16.96
2023-10-03T20:45:22.232Z,16.98
2023-10-03T20:48:24.440Z,16.88
2023-10-03T20:51:26.361Z,16.95
2023-10-03T20:54:28.344Z,16.93
2023-10-03T20:57:30.264Z,16.88
2023-10-03T21:00:33.088Z,16.63
2023-10-03T21:03:35.012Z,16.85
2023-10-03T21:06:38.305Z,16.84
2023-10-03T21:09:40.423Z,16.84
2023-10-03T21:12:42.408Z,16.54
2023-10-03T21:15:44.382Z,16.80
2023-10-03T21:18:46.332Z,16.82
2023-10-03T21:21:48.656Z,16.77
2023-10-03T21:24:50.630Z,16.61
2023-10-03T21:27:52.495Z,16.90
2023-10-03T21:30:56.130Z,16.92
2023-10-03T21:33:59.320Z,16.96
2023-10-03T21:37:01.437Z,16.84
2023-10-03T21:40:04.067Z,16.96
2023-10-03T21:43:06.071Z,16.92
2023-10-03T21:46:09.766Z,16.99
2023-10-03T21:49:11.721Z,16.97
2023-10-03T21:52:13.915Z,16.96
2023-10-03T21:55:15.832Z,16.90
2023-10-03T21:58:17.723Z,16.81
2023-10-03T22:01:19.852Z,16.75
2023-10-03T22:04:24.701Z,16.94
2023-10-03T22:07:26.561Z,17.03
2023-10-03T22:10:29.078Z,17.03
2023-10-03T22:13:32.477Z,17.02
2023-10-03T22:16:35.016Z,16.75
2023-10-03T22:19:36.867Z,16.89
2023-10-03T22:22:39.525Z,16.93
2023-10-03T22:25:41.398Z,16.96
2023-10-03T22:28:44.403Z,16.84
2023-10-03T22:31:46.407Z,16.56
2023-10-03T22:34:48.304Z,16.72
2023-10-03T22:38:02.106Z,16.72
2023-10-03T22:41:09.356Z,16.76
2023-10-03T22:44:12.441Z,16.20
2023-10-03T22:47:14.549Z,16.75
2023-10-03T22:50:16.716Z,16.65
2023-10-03T22:53:18.622Z,16.66
2023-10-03T22:56:26.160Z,16.73
2023-10-03T22:59:28.356Z,16.75
2023-10-03T23:02:32.357Z,16.35
2023-10-03T23:05:34.633Z,16.70
2023-10-03T23:08:36.459Z,16.53
2023-10-03T23:11:38.322Z,16.67
2023-10-03T23:14:41.555Z,16.52
2023-10-03T23:17:43.600Z,16.66
2023-10-03T23:20:47.500Z,16.67
2023-10-03T23:23:49.429Z,16.66
2023-10-03T23:26:51.517Z,16.55
2023-10-03T23:29:53.370Z,16.56
2023-10-03T23:32:55.706Z,16.64
2023-10-03T23:35:57.640Z,16.60
2023-10-03T23:39:00.492Z,16.61
2023-10-03T23:42:02.383Z,16.53
2023-10-03T23:45:05.045Z,16.45
2023-10-03T23:48:07.319Z,16.21
2023-10-03T23:51:12.814Z,16.51
2023-10-03T23:54:18.044Z,16.47
2023-10-03T23:57:20.378Z,16.40
